createdAt,value
2019-02-07T00:00:12.412Z,-451.09
2019-02-07T00:01:12.606Z,-454.80
2019-02-07T00:02:12.863Z,-453.11
2019-02-07T00:03:13.010Z,-453.62
2019-02-07T00:04:13.208Z,-454.12
2019-02-07T00:05:13.425Z,-452.11
2019-02-07T00:06:13.630Z,-455.43
2019-02-07T00:07:13.864Z,-452.88
2019-02-07T00:08:14.054Z,-452.79
2019-02-07T00:09:14.248Z,-454.69
2019-02-07T00:10:14.487Z,-453.22
2019-02-07T00:11:14.629Z,-454.34
2019-02-07T00:12:14.881Z,-454.11
2019-02-07T00:13:15.093Z,-452.32
2019-02-07T00:14:15.285Z,-452.76
2019-02-07T00:15:15.509Z,-454.95
2019-02-07T00:16:15.698Z,-453.65
2019-02-07T00:17:15.901Z,-454.24
2019-02-07T00:18:16.164Z,-453.80
2019-02-07T00:19:16.420Z,-453.54
2019-02-07T00:20:16.580Z,-456.06
2019-02-07T00:21:16.745Z,-458.07
2019-02-07T00:22:16.991Z,-457.86
2019-02-07T00:23:17.205Z,-455.48
2019-02-07T00:24:17.404Z,-458.14
2019-02-07T00:25:17.630Z,-457.06
2019-02-07T00:26:17.825Z,-455.20
2019-02-07T00:27:18.169Z,-456.67
2019-02-07T00:28:18.234Z,-456.29
2019-02-07T00:29:18.433Z,-453.02
2019-02-07T00:30:18.658Z,-456.55
2019-02-07T00:31:18.844Z,-456.91
2019-02-07T00:32:19.077Z,-455.53
2019-02-07T00:33:19.270Z,-456.44
2019-02-07T00:34:19.487Z,-454.98
2019-02-07T00:35:19.784Z,-456.56
2019-02-07T00:36:19.873Z,-454.55
2019-02-07T00:37:20.102Z,-455.45
2019-02-07T00:38:20.284Z,-454.76
2019-02-07T00:39:20.496Z,-455.54
2019-02-07T00:40:20.735Z,-455.41
2019-02-07T00:41:21.141Z,-456.43
2019-02-07T00:42:21.140Z,-454.92
2019-02-07T00:43:21.390Z,-456.42
2019-02-07T00:44:21.514Z,-456.62
2019-02-07T00:45:21.750Z,-456.82
2019-02-07T00:46:21.947Z,-456.38
2019-02-07T00:47:22.146Z,-455.60
2019-02-07T00:48:22.352Z,-457.56
2019-02-07T00:49:22.567Z,-454.81
2019-02-07T00:50:22.773Z,-456.70
2019-02-07T00:51:23.029Z,-458.94
2019-02-07T00:52:23.241Z,-457.42
2019-02-07T00:53:23.435Z,-456.66
2019-02-07T00:54:23.636Z,-455.46
2019-02-07T00:55:23.853Z,-456.12
2019-02-07T00:56:24.053Z,-455.73
2019-02-07T00:57:24.273Z,-456.20
2019-02-07T00:58:24.516Z,-458.96
2019-02-07T00:59:24.731Z,-455.57
2019-02-07T01:00:25.062Z,-456.71
2019-02-07T01:01:25.149Z,-455.26
2019-02-07T01:02:25.375Z,-457.04
2019-02-07T01:03:25.598Z,-455.33
2019-02-07T01:04:25.798Z,-456.55
2019-02-07T01:05:26.014Z,-457.26
2019-02-07T01:06:26.178Z,-455.29
2019-02-07T01:07:26.385Z,-456.74
2019-02-07T01:08:26.795Z,-455.35
2019-02-07T01:09:26.822Z,-454.50
2019-02-07T01:10:27.048Z,-456.77
2019-02-07T01:11:27.226Z,-457.30
2019-02-07T01:12:27.438Z,-456.49
2019-02-07T01:13:27.692Z,-455.33
2019-02-07T01:14:27.857Z,-454.20
2019-02-07T01:15:28.100Z,-455.46
2019-02-07T01:16:28.355Z,-456.69
2019-02-07T01:17:28.468Z,-452.55
2019-02-07T01:18:28.727Z,-455.56
2019-02-07T01:19:28.909Z,-454.57
2019-02-07T01:20:29.123Z,-453.49
2019-02-07T01:21:29.331Z,-454.03
2019-02-07T01:22:29.522Z,-456.17
2019-02-07T01:23:29.740Z,-454.02
2019-02-07T01:24:29.998Z,-455.96
2019-02-07T01:25:30.152Z,-455.99
2019-02-07T01:26:30.352Z,-454.28
2019-02-07T01:27:30.561Z,-453.32
2019-02-07T01:28:30.812Z,-454.04
2019-02-07T01:29:30.987Z,-453.87
2019-02-07T01:30:31.210Z,-455.39
2019-02-07T01:31:31.401Z,-455.30
2019-02-07T01:32:31.621Z,-452.53
2019-02-07T01:33:31.938Z,-454.56
2019-02-07T01:34:32.013Z,-454.04
2019-02-07T01:35:32.238Z,-455.72
2019-02-07T01:36:32.431Z,-457.63
2019-02-07T01:37:32.639Z,-458.52
2019-02-07T01:38:32.877Z,-456.69
2019-02-07T01:39:33.055Z,-458.07
2019-02-07T01:40:33.277Z,-454.57
2019-02-07T01:41:33.592Z,-456.65
2019-02-07T01:42:33.677Z,-454.22
2019-02-07T01:43:33.918Z,-454.97
2019-02-07T01:44:34.087Z,-455.72
2019-02-07T01:45:34.305Z,-455.56
2019-02-07T01:46:34.506Z,-457.22
2019-02-07T01:47:34.718Z,-456.61
2019-02-07T01:48:34.945Z,-453.79
2019-02-07T01:49:35.191Z,-456.88
2019-02-07T01:50:35.311Z,-456.85
2019-02-07T01:51:35.537Z,-454.20
2019-02-07T01:52:35.744Z,-457.29
2019-02-07T01:53:35.985Z,-457.17
2019-02-07T01:54:36.160Z,-457.13
2019-02-07T01:55:36.382Z,-458.28
2019-02-07T01:56:36.571Z,-458.18
2019-02-07T01:57:36.846Z,-457.56
2019-02-07T01:58:36.990Z,-456.14
2019-02-07T01:59:37.191Z,-456.70
2019-02-07T02:00:37.412Z,-457.60
2019-02-07T02:01:37.614Z,-454.98
2019-02-07T02:02:37.814Z,-456.71
2019-02-07T02:03:38.045Z,-455.72
2019-02-07T02:04:38.257Z,-458.30
2019-02-07T02:05:38.500Z,-455.71
2019-02-07T02:06:38.769Z,-457.65
2019-02-07T02:07:38.883Z,-457.25
2019-02-07T02:08:39.111Z,-457.30
2019-02-07T02:09:39.297Z,-457.00
2019-02-07T02:10:39.523Z,-456.70
2019-02-07T02:11:39.731Z,-455.51
2019-02-07T02:12:39.920Z,-456.01
2019-02-07T02:13:40.176Z,-456.73
2019-02-07T02:14:40.436Z,-456.52
2019-02-07T02:15:40.555Z,-457.21
2019-02-07T02:16:40.768Z,-455.70
2019-02-07T02:17:40.959Z,-456.38
2019-02-07T02:18:41.422Z,-456.33
2019-02-07T02:19:41.359Z,-454.51
2019-02-07T02:20:41.580Z,-456.41
2019-02-07T02:21:41.822Z,-458.43
2019-02-07T02:22:42.153Z,-454.74
2019-02-07T02:23:42.242Z,-457.25
2019-02-07T02:24:45.112Z,-456.03
2019-02-07T02:25:42.631Z,-456.91
2019-02-07T02:26:42.866Z,-455.85
2019-02-07T02:27:43.056Z,-456.76
2019-02-07T02:28:43.290Z,-455.41
2019-02-07T02:29:43.469Z,-454.93
2019-02-07T02:30:43.770Z,-455.43
2019-02-07T02:31:43.887Z,-454.37
2019-02-07T02:32:44.083Z,-455.79
2019-02-07T02:33:44.366Z,-455.97
2019-02-07T02:34:44.498Z,-456.32
2019-02-07T02:35:44.708Z,-456.56
2019-02-07T02:36:44.913Z,-453.86
2019-02-07T02:37:45.124Z,-456.25
2019-02-07T02:38:45.439Z,-455.87
2019-02-07T02:39:45.516Z,-453.20
2019-02-07T02:40:45.737Z,-455.21
2019-02-07T02:41:45.956Z,-456.95
2019-02-07T02:42:46.133Z,-454.58
2019-02-07T02:43:46.408Z,-454.82
2019-02-07T02:44:46.572Z,-457.45
2019-02-07T02:45:46.780Z,-456.61
2019-02-07T02:46:47.040Z,-455.47
2019-02-07T02:47:47.250Z,-457.02
2019-02-07T02:48:47.481Z,-456.04
2019-02-07T02:49:47.649Z,-454.88
2019-02-07T02:50:47.856Z,-455.57
2019-02-07T02:51:48.082Z,-455.98
2019-02-07T02:52:48.270Z,-456.45
2019-02-07T02:53:48.782Z,-455.19
2019-02-07T02:54:48.683Z,-456.48
2019-02-07T02:55:49.026Z,-452.55
2019-02-07T02:56:49.128Z,-452.45
2019-02-07T02:57:49.322Z,-453.21
2019-02-07T02:58:49.544Z,-453.76
2019-02-07T02:59:49.735Z,-451.51
2019-02-07T03:00:49.931Z,-450.92
2019-02-07T03:01:50.162Z,-452.81
2019-02-07T03:02:50.358Z,-453.21
2019-02-07T03:03:50.937Z,-452.62
2019-02-07T03:04:50.757Z,-451.20
2019-02-07T03:05:50.963Z,-450.25
2019-02-07T03:06:51.189Z,-451.25
2019-02-07T03:07:51.378Z,-452.99
2019-02-07T03:08:51.616Z,-450.43
2019-02-07T03:09:51.772Z,-451.53
2019-02-07T03:10:52.017Z,-447.90
2019-02-07T03:11:52.278Z,-451.63
2019-02-07T03:12:52.400Z,-451.26
2019-02-07T03:13:52.631Z,-449.94
2019-02-07T03:14:52.831Z,-451.45
2019-02-07T03:15:53.038Z,-449.19
2019-02-07T03:16:53.258Z,-449.23
2019-02-07T03:17:53.449Z,-448.89
2019-02-07T03:18:53.678Z,-450.05
2019-02-07T03:19:53.934Z,-448.51
2019-02-07T03:20:54.041Z,-449.78
2019-02-07T03:21:54.278Z,-450.39
2019-02-07T03:22:54.490Z,-449.23
2019-02-07T03:23:54.705Z,-450.34
2019-02-07T03:24:54.928Z,-451.02
2019-02-07T03:25:55.108Z,-449.84
2019-02-07T03:26:55.336Z,-451.70
2019-02-07T03:27:55.533Z,-450.16
2019-02-07T03:28:55.790Z,-448.01
2019-02-07T03:29:56.180Z,-449.63
2019-02-07T03:30:56.135Z,-448.51
2019-02-07T03:31:56.375Z,-449.22
2019-02-07T03:32:56.778Z,-448.82
2019-02-07T03:33:56.785Z,-448.56
2019-02-07T03:34:56.982Z,-449.43
2019-02-07T03:35:57.173Z,-445.99
2019-02-07T03:36:57.529Z,-449.01
2019-02-07T03:37:57.612Z,-450.39
2019-02-07T03:38:57.809Z,-449.52
2019-02-07T03:39:58.073Z,-446.75
2019-02-07T03:40:58.219Z,-448.77
2019-02-07T03:41:58.445Z,-447.27
2019-02-07T03:42:58.642Z,-445.48
2019-02-07T03:43:58.836Z,-447.38
2019-02-07T03:44:59.228Z,-447.79
2019-02-07T03:46:02.853Z,-441.06
2019-02-07T03:46:59.464Z,-444.03
2019-02-07T03:47:59.658Z,-443.25
2019-02-07T03:48:59.847Z,-443.39
2019-02-07T03:50:00.122Z,-417.92
2019-02-07T03:51:00.302Z,-419.25
2019-02-07T03:52:00.519Z,-419.93
2019-02-07T03:53:00.755Z,-420.30
2019-02-07T03:54:00.893Z,-419.39
2019-02-07T03:55:01.334Z,-421.54
2019-02-07T03:56:01.312Z,-422.07
2019-02-07T03:57:01.558Z,-421.77
2019-02-07T03:58:01.736Z,-422.24
2019-02-07T03:59:01.947Z,-420.06
2019-02-07T04:00:02.401Z,-421.18
2019-02-07T04:01:02.387Z,-421.19
2019-02-07T04:02:02.591Z,-423.47
2019-02-07T04:03:02.789Z,-421.61
2019-02-07T04:04:02.990Z,-423.08
2019-02-07T04:05:03.219Z,-422.80
2019-02-07T04:06:03.410Z,-419.91
2019-02-07T04:07:03.593Z,-419.49
2019-02-07T04:08:03.818Z,-422.53
2019-02-07T04:09:04.035Z,-420.31
2019-02-07T04:10:04.352Z,-422.47
2019-02-07T04:11:04.422Z,-419.27
2019-02-07T04:12:04.641Z,-421.26
2019-02-07T04:13:04.860Z,-421.86
2019-02-07T04:14:05.066Z,-422.29
2019-02-07T04:15:05.289Z,-423.76
2019-02-07T04:16:14.805Z,-419.27
2019-02-07T04:17:06.667Z,-417.42
2019-02-07T04:18:06.017Z,-422.16
2019-02-07T04:19:06.102Z,-420.14
2019-02-07T04:20:06.332Z,-421.23
2019-02-07T04:21:06.529Z,-420.78
2019-02-07T04:22:06.713Z,-420.30
2019-02-07T04:23:06.941Z,-420.41
2019-02-07T04:24:07.174Z,-418.86
2019-02-07T04:25:07.397Z,-419.78
2019-02-07T04:26:07.653Z,-419.76
2019-02-07T04:27:07.774Z,-419.49
2019-02-07T04:28:07.989Z,-420.73
2019-02-07T04:29:08.194Z,-420.05
2019-02-07T04:30:08.415Z,-419.16
2019-02-07T04:31:08.618Z,-420.01
2019-02-07T04:32:08.813Z,-418.97
2019-02-07T04:33:09.041Z,-418.94
2019-02-07T04:34:09.292Z,-419.52
2019-02-07T04:35:09.429Z,-422.40
2019-02-07T04:36:09.654Z,-418.62
2019-02-07T04:37:09.828Z,-419.57
2019-02-07T04:38:10.067Z,-419.70
2019-02-07T04:39:10.253Z,-417.59
2019-02-07T04:40:12.103Z,-416.63
2019-02-07T04:41:10.713Z,-415.10
2019-02-07T04:42:10.916Z,-415.21
2019-02-07T04:43:11.182Z,-419.77
2019-02-07T04:44:11.301Z,-417.41
2019-02-07T04:45:11.510Z,-417.99
2019-02-07T04:46:11.729Z,-419.92
2019-02-07T04:47:11.920Z,-419.78
2019-02-07T04:48:12.146Z,-418.07
2019-02-07T04:49:12.361Z,-420.89
2019-02-07T04:50:12.566Z,-418.33
2019-02-07T04:51:12.845Z,-419.21
2019-02-07T04:52:12.953Z,-420.82
2019-02-07T04:53:13.174Z,-420.46
2019-02-07T04:54:13.367Z,-419.70
2019-02-07T04:55:13.585Z,-422.24
2019-02-07T04:56:13.757Z,-420.59
2019-02-07T04:57:14.006Z,-423.04
2019-02-07T04:58:14.200Z,-420.23
2019-02-07T04:59:14.549Z,-420.39
2019-02-07T05:00:14.613Z,-417.82
2019-02-07T05:01:14.786Z,-418.56
2019-02-07T05:02:15.012Z,-417.76
2019-02-07T05:03:15.228Z,-416.39
2019-02-07T05:04:15.436Z,-417.46
2019-02-07T05:05:15.646Z,-417.35
2019-02-07T05:06:15.834Z,-414.30
2019-02-07T05:07:16.068Z,-417.80
2019-02-07T05:08:16.246Z,-416.70
2019-02-07T05:09:16.442Z,-417.51
2019-02-07T05:10:16.665Z,-418.54
2019-02-07T05:11:16.860Z,-421.91
2019-02-07T05:12:17.086Z,-422.26
2019-02-07T05:13:17.265Z,-420.01
2019-02-07T05:14:17.469Z,-420.86
2019-02-07T05:15:17.733Z,-419.51
2019-02-07T05:16:17.873Z,-419.87
2019-02-07T05:17:18.113Z,-417.68
2019-02-07T05:18:18.299Z,-414.88
2019-02-07T05:19:18.499Z,-417.96
2019-02-07T05:20:18.734Z,-416.70
2019-02-07T05:21:18.937Z,-417.58
2019-02-07T05:22:19.133Z,-417.40
2019-02-07T05:23:19.388Z,-417.18
2019-02-07T05:24:19.644Z,-440.07
2019-02-07T05:25:19.755Z,-440.10
2019-02-07T05:26:19.982Z,-442.99
2019-02-07T05:27:20.185Z,-441.83
2019-02-07T05:28:20.418Z,-440.57
2019-02-07T05:29:20.583Z,-439.42
2019-02-07T05:30:20.806Z,-440.52
2019-02-07T05:31:21.049Z,-412.98
2019-02-07T05:32:21.352Z,-438.77
2019-02-07T05:33:21.493Z,-438.33
2019-02-07T05:34:21.635Z,-438.23
2019-02-07T05:35:22.091Z,-441.67
2019-02-07T05:36:22.089Z,-436.61
2019-02-07T05:37:22.280Z,-438.26
2019-02-07T05:38:22.517Z,-434.82
2019-02-07T05:39:22.692Z,-435.72
2019-02-07T05:40:22.983Z,-436.42
2019-02-07T05:41:23.111Z,-440.29
2019-02-07T05:42:23.315Z,-436.69
2019-02-07T05:43:23.535Z,-436.03
2019-02-07T05:44:23.717Z,-437.09
2019-02-07T05:45:23.923Z,-437.16
2019-02-07T05:46:24.133Z,-436.92
2019-02-07T05:47:24.333Z,-437.81
2019-02-07T05:48:24.635Z,-440.81
2019-02-07T05:49:24.733Z,-441.04
2019-02-07T05:50:24.950Z,-438.64
2019-02-07T05:51:25.170Z,-440.88
2019-02-07T05:52:25.343Z,-439.39
2019-02-07T05:53:25.606Z,-440.71
2019-02-07T05:54:25.780Z,-438.59
2019-02-07T05:55:25.983Z,-437.54
2019-02-07T05:56:26.244Z,-432.21
2019-02-07T05:57:26.422Z,-438.53
2019-02-07T05:58:26.658Z,-436.98
2019-02-07T05:59:26.815Z,-436.27
2019-02-07T06:00:27.017Z,-436.07
2019-02-07T06:01:27.246Z,-437.40
2019-02-07T06:02:27.423Z,-438.26
2019-02-07T06:03:27.676Z,-437.21
2019-02-07T06:04:27.841Z,-434.90
2019-02-07T06:05:28.143Z,-436.64
2019-02-07T06:06:28.277Z,-436.62
2019-02-07T06:07:28.462Z,-435.33
2019-02-07T06:08:28.703Z,-438.48
2019-02-07T06:09:28.880Z,-437.25
2019-02-07T06:10:29.089Z,-440.68
2019-02-07T06:11:29.305Z,-437.82
2019-02-07T06:12:29.497Z,-436.97
2019-02-07T06:13:29.841Z,-441.06
2019-02-07T06:14:30.000Z,-437.22
2019-02-07T06:15:30.116Z,-439.28
2019-02-07T06:16:30.345Z,-439.22
2019-02-07T06:17:30.523Z,-439.20
2019-02-07T06:18:30.774Z,-437.05
2019-02-07T06:19:30.929Z,-437.82
2019-02-07T06:20:31.155Z,-439.63
2019-02-07T06:21:31.432Z,-439.51
2019-02-07T06:22:31.548Z,-440.63
2019-02-07T06:23:31.782Z,-442.57
2019-02-07T06:24:31.968Z,-441.47
2019-02-07T06:25:32.184Z,-442.78
2019-02-07T06:26:32.404Z,-439.77
2019-02-07T06:27:32.588Z,-438.38
2019-02-07T06:28:32.795Z,-437.72
2019-02-07T06:29:33.071Z,-436.13
2019-02-07T06:30:33.211Z,-439.50
2019-02-07T06:31:33.453Z,-440.24
2019-02-07T06:32:33.631Z,-437.79
2019-02-07T06:33:33.840Z,-439.09
2019-02-07T06:34:34.075Z,-439.99
2019-02-07T06:35:34.272Z,-438.61
2019-02-07T06:36:34.498Z,-437.84
2019-02-07T06:37:34.713Z,-438.74
2019-02-07T06:38:34.947Z,-438.97
2019-02-07T06:39:35.124Z,-439.68
2019-02-07T06:40:35.306Z,-438.69
2019-02-07T06:41:35.541Z,-435.98
2019-02-07T06:42:35.704Z,-435.59
2019-02-07T06:43:35.926Z,-433.05
2019-02-07T06:44:36.171Z,-434.36
2019-02-07T06:45:36.342Z,-438.68
2019-02-07T06:46:36.696Z,-440.19
2019-02-07T06:47:36.736Z,-441.62
2019-02-07T06:48:36.957Z,-440.52
2019-02-07T06:49:37.180Z,-442.35
2019-02-07T06:50:37.377Z,-439.52
2019-02-07T06:51:37.605Z,-437.07
2019-02-07T06:52:37.790Z,-440.24
2019-02-07T06:53:37.975Z,-442.18
2019-02-07T06:54:38.301Z,-439.32
2019-02-07T06:55:38.398Z,-439.77
2019-02-07T06:56:38.623Z,-435.54
2019-02-07T06:57:38.814Z,-409.27
2019-02-07T06:58:38.990Z,-434.68
2019-02-07T06:59:39.254Z,-436.17
2019-02-07T07:00:39.427Z,-434.14
2019-02-07T07:01:39.659Z,-437.36
2019-02-07T07:02:39.888Z,-434.41
2019-02-07T07:03:40.022Z,-434.19
2019-02-07T07:04:40.279Z,-435.91
2019-02-07T07:05:40.475Z,-438.07
2019-02-07T07:06:40.702Z,-437.21
2019-02-07T07:07:40.889Z,-434.98
2019-02-07T07:08:41.088Z,-434.63
2019-02-07T07:09:41.323Z,-437.37
2019-02-07T07:10:41.564Z,-438.03
2019-02-07T07:11:41.725Z,-438.05
2019-02-07T07:12:41.927Z,-438.43
2019-02-07T07:13:42.366Z,-437.40
2019-02-07T07:14:42.367Z,-438.34
2019-02-07T07:15:42.532Z,-434.81
2019-02-07T07:16:42.741Z,-437.21
2019-02-07T07:17:42.962Z,-431.39
2019-02-07T07:18:43.181Z,-436.33
2019-02-07T07:19:43.500Z,-435.89
2019-02-07T07:20:43.564Z,-437.10
2019-02-07T07:21:43.805Z,-437.61
2019-02-07T07:22:43.997Z,-436.78
2019-02-07T07:23:44.200Z,-437.64
2019-02-07T07:24:44.433Z,-438.54
2019-02-07T07:25:44.613Z,-438.99
2019-02-07T07:26:44.808Z,-437.21
2019-02-07T07:27:45.091Z,-438.37
2019-02-07T07:28:45.228Z,-440.03
2019-02-07T07:29:45.610Z,-440.45
2019-02-07T07:30:45.647Z,-439.45
2019-02-07T07:31:45.837Z,-439.01
2019-02-07T07:32:46.083Z,-440.93
2019-02-07T07:33:46.290Z,-440.16
2019-02-07T07:34:46.801Z,-442.47
2019-02-07T07:35:46.811Z,-436.84
2019-02-07T07:36:46.884Z,-437.74
2019-02-07T07:37:47.127Z,-439.38
2019-02-07T07:38:47.352Z,-440.99
2019-02-07T07:39:47.602Z,-441.64
2019-02-07T07:40:47.764Z,-437.63
2019-02-07T07:41:47.969Z,-438.52
2019-02-07T07:42:48.194Z,-442.39
2019-02-07T07:43:48.420Z,-445.26
2019-02-07T07:44:48.616Z,-445.24
2019-02-07T07:45:48.787Z,-442.37
2019-02-07T07:46:48.990Z,-442.92
2019-02-07T07:47:49.215Z,-443.85
2019-02-07T07:48:49.403Z,-434.43
2019-02-07T07:49:49.972Z,-442.20
2019-02-07T07:50:49.828Z,-439.87
2019-02-07T07:51:50.057Z,-439.88
2019-02-07T07:52:50.300Z,-437.35
2019-02-07T07:53:50.446Z,-439.77
2019-02-07T07:54:50.688Z,-440.66
2019-02-07T07:55:50.867Z,-425.72
2019-02-07T07:56:51.068Z,-435.79
2019-02-07T07:57:51.295Z,-439.10
2019-02-07T07:58:51.490Z,-440.22
2019-02-07T07:59:51.791Z,-443.01
2019-02-07T08:00:52.002Z,-444.12
2019-02-07T08:01:52.109Z,-418.05
2019-02-07T08:02:52.333Z,-443.91
2019-02-07T08:03:52.519Z,-442.84
2019-02-07T08:04:52.802Z,-446.06
2019-02-07T08:05:53.386Z,-446.44
2019-02-07T08:06:53.166Z,-448.22
2019-02-07T08:07:53.363Z,-443.17
2019-02-07T08:08:53.712Z,-442.10
2019-02-07T08:09:53.781Z,-438.69
2019-02-07T08:10:53.955Z,-441.79
2019-02-07T08:11:54.202Z,-441.26
2019-02-07T08:12:54.413Z,-438.02
2019-02-07T08:13:54.589Z,-443.75
2019-02-07T08:14:54.807Z,-443.86
2019-02-07T08:15:55.109Z,-441.30
2019-02-07T08:16:55.302Z,-441.53
2019-02-07T08:17:55.419Z,-419.74
2019-02-07T08:18:55.618Z,-443.13
2019-02-07T08:19:55.840Z,-444.44
2019-02-07T08:20:56.028Z,-447.54
2019-02-07T08:21:56.241Z,-447.43
2019-02-07T08:22:56.445Z,-448.98
2019-02-07T08:23:56.651Z,-451.85
2019-02-07T08:24:56.936Z,-446.19
2019-02-07T08:25:57.063Z,-445.71
2019-02-07T08:26:57.344Z,-446.48
2019-02-07T08:27:57.472Z,-446.35
2019-02-07T08:28:57.681Z,-446.01
2019-02-07T08:29:57.922Z,-447.49
2019-02-07T08:30:58.113Z,-447.72
2019-02-07T08:31:58.343Z,-420.79
2019-02-07T08:32:58.585Z,-445.36
2019-02-07T08:33:58.786Z,-445.24
2019-02-07T08:34:58.942Z,-446.57
2019-02-07T08:35:59.148Z,-442.27
2019-02-07T08:36:59.377Z,-443.02
2019-02-07T08:37:59.582Z,-445.11
2019-02-07T08:38:59.760Z,-446.30
2019-02-07T08:39:59.962Z,-446.00
2019-02-07T08:41:00.208Z,-450.66
2019-02-07T08:42:00.595Z,-446.72
2019-02-07T08:43:00.660Z,-443.39
2019-02-07T08:44:00.839Z,-446.91
2019-02-07T08:45:01.050Z,-444.63
2019-02-07T08:46:01.345Z,-443.64
2019-02-07T08:47:01.509Z,-443.03
2019-02-07T08:48:03.694Z,-446.21
2019-02-07T08:49:01.906Z,-446.10
2019-02-07T08:50:02.193Z,-415.64
2019-02-07T08:51:02.321Z,-440.75
2019-02-07T08:52:02.754Z,-443.98
2019-02-07T08:53:02.740Z,-444.42
2019-02-07T08:54:02.915Z,-419.01
2019-02-07T08:55:03.142Z,-445.45
2019-02-07T08:56:03.348Z,-441.97
2019-02-07T08:57:03.579Z,-437.80
2019-02-07T08:58:03.869Z,-419.62
2019-02-07T08:59:03.952Z,-444.30
2019-02-07T09:00:04.166Z,-418.08
2019-02-07T09:01:04.388Z,-445.00
2019-02-07T09:02:04.565Z,-421.60
2019-02-07T09:03:04.815Z,-447.81
2019-02-07T09:04:04.992Z,-419.32
2019-02-07T09:05:05.197Z,-443.14
2019-02-07T09:06:05.487Z,-417.24
2019-02-07T09:07:05.637Z,-440.80
2019-02-07T09:08:05.847Z,-419.02
2019-02-07T09:09:06.032Z,-444.70
2019-02-07T09:10:06.240Z,-444.36
2019-02-07T09:11:06.468Z,-445.23
2019-02-07T09:12:06.666Z,-444.10
2019-02-07T09:13:06.893Z,-446.54
2019-02-07T09:14:07.081Z,-448.56
2019-02-07T09:15:07.367Z,-445.42
2019-02-07T09:16:07.523Z,-445.61
2019-02-07T09:17:07.700Z,-442.14
2019-02-07T09:18:10.317Z,-417.75
2019-02-07T09:19:08.106Z,-443.55
2019-02-07T09:20:08.332Z,-444.10
2019-02-07T09:21:08.558Z,-443.63
2019-02-07T09:22:08.779Z,-418.43
2019-02-07T09:23:09.085Z,-442.10
2019-02-07T09:24:09.189Z,-421.38
2019-02-07T09:25:09.399Z,-448.92
2019-02-07T09:26:09.631Z,-420.40
2019-02-07T09:27:09.843Z,-443.90
2019-02-07T09:28:10.089Z,-444.19
2019-02-07T09:29:10.218Z,-444.51
2019-02-07T09:30:10.444Z,-417.51
2019-02-07T09:31:10.758Z,-442.62
2019-02-07T09:32:10.855Z,-442.63
2019-02-07T09:33:11.121Z,-442.15
2019-02-07T09:34:11.284Z,-442.88
2019-02-07T09:35:11.557Z,-442.18
2019-02-07T09:36:11.702Z,-419.82
2019-02-07T09:37:11.935Z,-443.19
2019-02-07T09:38:12.123Z,-418.27
2019-02-07T09:39:12.374Z,-443.31
2019-02-07T09:40:12.487Z,-444.65
2019-02-07T09:41:12.721Z,-445.42
2019-02-07T09:42:12.914Z,-445.53
2019-02-07T09:43:13.140Z,-445.46
2019-02-07T09:44:13.364Z,-440.62
2019-02-07T09:45:13.574Z,-442.00
2019-02-07T09:46:13.803Z,-440.91
2019-02-07T09:47:14.001Z,-444.71
2019-02-07T09:48:21.378Z,-418.13
2019-02-07T09:49:15.425Z,-440.42
2019-02-07T09:50:14.629Z,-444.73
2019-02-07T09:51:14.857Z,-444.38
2019-02-07T09:52:15.028Z,-445.66
2019-02-07T09:53:23.778Z,-445.19
2019-02-07T09:54:16.498Z,-448.11
2019-02-07T09:55:15.697Z,-449.75
2019-02-07T09:56:16.033Z,-447.17
2019-02-07T09:57:16.082Z,-448.76
2019-02-07T09:58:16.312Z,-447.08
2019-02-07T09:59:16.520Z,-445.45
2019-02-07T10:00:16.719Z,-447.35
2019-02-07T10:01:16.941Z,-422.60
2019-02-07T10:02:17.128Z,-423.41
2019-02-07T10:03:17.341Z,-449.00
2019-02-07T10:04:17.707Z,-450.20
2019-02-07T10:05:17.739Z,-451.38
2019-02-07T10:06:17.981Z,-453.44
2019-02-07T10:07:18.168Z,-449.23
2019-02-07T10:08:18.371Z,-450.78
2019-02-07T10:09:18.598Z,-454.88
2019-02-07T10:10:18.787Z,-451.33
2019-02-07T10:11:19.014Z,-452.71
2019-02-07T10:12:19.237Z,-454.78
2019-02-07T10:13:19.406Z,-456.12
2019-02-07T10:14:19.625Z,-458.20
2019-02-07T10:15:19.831Z,-452.94
2019-02-07T10:16:20.058Z,-450.17
2019-02-07T10:17:20.243Z,-453.90
2019-02-07T10:18:20.471Z,-453.23
2019-02-07T10:19:20.680Z,-452.14
2019-02-07T10:20:20.895Z,-452.53
2019-02-07T10:21:21.071Z,-451.32
2019-02-07T10:22:21.270Z,-452.34
2019-02-07T10:23:21.484Z,-455.47
2019-02-07T10:24:21.711Z,-456.32
2019-02-07T10:25:21.881Z,-455.35
2019-02-07T10:26:22.109Z,-455.15
2019-02-07T10:27:22.305Z,-459.32
2019-02-07T10:28:22.577Z,-450.88
2019-02-07T10:29:23.064Z,-452.03
2019-02-07T10:30:22.923Z,-453.72
2019-02-07T10:31:23.147Z,-455.21
2019-02-07T10:32:23.350Z,-456.04
2019-02-07T10:33:23.558Z,-451.67
2019-02-07T10:34:23.792Z,-450.21
2019-02-07T10:35:23.971Z,-438.21
2019-02-07T10:36:24.199Z,-420.28
2019-02-07T10:37:24.503Z,-448.23
2019-02-07T10:38:24.597Z,-449.05
2019-02-07T10:39:24.821Z,-450.18
2019-02-07T10:40:25.003Z,-449.43
2019-02-07T10:41:25.202Z,-451.51
2019-02-07T10:42:25.407Z,-452.77
2019-02-07T10:43:25.627Z,-452.92
2019-02-07T10:44:25.868Z,-453.89
2019-02-07T10:45:26.145Z,-454.89
2019-02-07T10:46:26.221Z,-452.52
2019-02-07T10:47:26.482Z,-446.02
2019-02-07T10:48:26.691Z,-448.78
2019-02-07T10:49:26.928Z,-446.23
2019-02-07T10:50:27.123Z,-453.11
2019-02-07T10:51:27.316Z,-451.09
2019-02-07T10:52:27.539Z,-455.17
2019-02-07T10:53:27.778Z,-450.52
2019-02-07T10:54:27.969Z,-452.78
2019-02-07T10:55:28.151Z,-455.53
2019-02-07T10:56:28.365Z,-453.30
2019-02-07T10:57:28.583Z,-446.07
2019-02-07T10:58:28.749Z,-450.82
2019-02-07T10:59:28.979Z,-454.05
2019-02-07T11:00:29.188Z,-452.54
2019-02-07T11:01:29.501Z,-454.75
2019-02-07T11:02:29.643Z,-457.53
2019-02-07T11:03:29.823Z,-456.17
2019-02-07T11:04:30.029Z,-458.38
2019-02-07T11:05:30.236Z,-456.26
2019-02-07T11:06:30.453Z,-457.29
2019-02-07T11:07:30.670Z,-454.34
2019-02-07T11:08:30.853Z,-455.63
2019-02-07T11:09:31.201Z,-455.53
2019-02-07T11:10:31.402Z,-453.62
2019-02-07T11:11:31.498Z,-457.20
2019-02-07T11:12:31.704Z,-459.67
2019-02-07T11:13:31.893Z,-456.72
2019-02-07T11:14:32.121Z,-455.21
2019-02-07T11:15:32.293Z,-449.91
2019-02-07T11:16:32.526Z,-457.01
2019-02-07T11:17:32.741Z,-459.29
2019-02-07T11:18:33.074Z,-457.09
2019-02-07T11:19:33.164Z,-454.64
2019-02-07T11:20:33.351Z,-457.08
2019-02-07T11:21:33.564Z,-458.30
2019-02-07T11:22:33.792Z,-460.23
2019-02-07T11:23:33.974Z,-458.33
2019-02-07T11:24:34.204Z,-460.05
2019-02-07T11:25:34.445Z,-458.94
2019-02-07T11:26:34.647Z,-461.29
2019-02-07T11:27:34.808Z,-459.62
2019-02-07T11:28:35.006Z,-458.20
2019-02-07T11:29:35.233Z,-449.33
2019-02-07T11:30:35.452Z,-456.76
2019-02-07T11:31:35.631Z,-457.58
2019-02-07T11:32:35.839Z,-460.23
2019-02-07T11:33:36.046Z,-459.48
2019-02-07T11:34:36.546Z,-455.81
2019-02-07T11:35:36.453Z,-449.26
2019-02-07T11:36:36.714Z,-454.77
2019-02-07T11:37:36.855Z,-457.34
2019-02-07T11:38:37.034Z,-457.51
2019-02-07T11:39:37.267Z,-459.93
2019-02-07T11:40:37.498Z,-458.30
2019-02-07T11:41:37.672Z,-457.62
2019-02-07T11:42:37.945Z,-457.36
2019-02-07T11:43:38.111Z,-457.25
2019-02-07T11:44:38.312Z,-463.10
2019-02-07T11:45:38.516Z,-461.65
2019-02-07T11:46:38.703Z,-459.00
2019-02-07T11:47:38.928Z,-460.42
2019-02-07T11:48:39.165Z,-462.42
2019-02-07T11:49:39.325Z,-459.95
2019-02-07T11:50:39.587Z,-459.51
2019-02-07T11:51:39.847Z,-459.93
2019-02-07T11:52:39.964Z,-462.67
2019-02-07T11:53:40.136Z,-463.94
2019-02-07T11:54:40.366Z,-453.17
2019-02-07T11:55:40.588Z,-444.54
2019-02-07T11:56:40.766Z,-452.00
2019-02-07T11:57:40.993Z,-458.27
2019-02-07T11:58:41.179Z,-458.19
2019-02-07T11:59:41.470Z,-456.49
2019-02-07T12:00:41.622Z,-458.26
2019-02-07T12:01:41.802Z,-460.03
2019-02-07T12:02:42.031Z,-458.48
2019-02-07T12:03:42.215Z,-452.61
2019-02-07T12:04:42.425Z,-452.46
2019-02-07T12:05:42.643Z,-449.16
2019-02-07T12:06:42.853Z,-457.53
2019-02-07T12:07:43.334Z,-450.76